sensor_id;sensor_type;location;lat;lon;timestamp;P1;durP1;ratioP1;P2;durP2;ratioP2
81229;SDS011;70701;44.452;18.652;2023-08-01T00:01:24;10.65;;;7.30;;
81229;SDS011;70701;44.452;18.652;2023-08-01T00:03:50;11.88;;;7.30;;
81229;SDS011;70701;44.452;18.652;2023-08-01T00:06:16;16.77;;;7.20;;
81229;SDS011;70701;44.452;18.652;2023-08-01T00:08:41;10.55;;;7.07;;
81229;SDS011;70701;44.452;18.652;2023-08-01T00:11:07;10.38;;;7.18;;
81229;SDS011;70701;44.452;18.652;2023-08-01T00:13:35;9.45;;;7.47;;
81229;SDS011;70701;44.452;18.652;2023-08-01T00:16:00;11.43;;;6.65;;
81229;SDS011;70701;44.452;18.652;2023-08-01T00:18:26;12.60;;;7.03;;
81229;SDS011;70701;44.452;18.652;2023-08-01T00:20:52;9.07;;;6.85;;
81229;SDS011;70701;44.452;18.652;2023-08-01T00:23:19;11.55;;;7.50;;
81229;SDS011;70701;44.452;18.652;2023-08-01T00:25:46;9.70;;;6.07;;
81229;SDS011;70701;44.452;18.652;2023-08-01T00:28:17;10.73;;;7.22;;
81229;SDS011;70701;44.452;18.652;2023-08-01T00:30:43;12.05;;;7.40;;
81229;SDS011;70701;44.452;18.652;2023-08-01T00:33:09;11.20;;;7.32;;
81229;SDS011;70701;44.452;18.652;2023-08-01T00:35:35;10.07;;;6.65;;
81229;SDS011;70701;44.452;18.652;2023-08-01T00:38:00;9.95;;;6.72;;
81229;SDS011;70701;44.452;18.652;2023-08-01T00:40:31;9.25;;;6.45;;
81229;SDS011;70701;44.452;18.652;2023-08-01T00:42:57;10.88;;;6.80;;
81229;SDS011;70701;44.452;18.652;2023-08-01T00:45:24;10.38;;;7.20;;
81229;SDS011;70701;44.452;18.652;2023-08-01T00:47:51;12.43;;;6.70;;
81229;SDS011;70701;44.452;18.652;2023-08-01T00:50:18;11.90;;;6.95;;
81229;SDS011;70701;44.452;18.652;2023-08-01T00:52:47;11.18;;;6.40;;
81229;SDS011;70701;44.452;18.652;2023-08-01T00:55:15;10.57;;;6.10;;
81229;SDS011;70701;44.452;18.652;2023-08-01T00:57:41;8.35;;;6.28;;
81229;SDS011;70701;44.452;18.652;2023-08-01T01:00:08;8.77;;;5.90;;
81229;SDS011;70701;44.452;18.652;2023-08-01T01:02:34;9.45;;;5.70;;
81229;SDS011;70701;44.452;18.652;2023-08-01T01:05:01;10.18;;;5.57;;
81229;SDS011;70701;44.452;18.652;2023-08-01T01:07:27;8.73;;;5.72;;
81229;SDS011;70701;44.452;18.652;2023-08-01T01:09:54;11.57;;;6.35;;
81229;SDS011;70701;44.452;18.652;2023-08-01T01:12:20;10.70;;;5.70;;
81229;SDS011;70701;44.452;18.652;2023-08-01T01:14:46;9.13;;;5.65;;
81229;SDS011;70701;44.452;18.652;2023-08-01T01:17:11;10.25;;;5.13;;
81229;SDS011;70701;44.452;18.652;2023-08-01T01:19:37;10.68;;;6.68;;
81229;SDS011;70701;44.452;18.652;2023-08-01T01:22:03;8.25;;;5.35;;
81229;SDS011;70701;44.452;18.652;2023-08-01T01:24:31;9.13;;;5.90;;
81229;SDS011;70701;44.452;18.652;2023-08-01T01:26:59;9.73;;;6.13;;
81229;SDS011;70701;44.452;18.652;2023-08-01T01:29:26;12.05;;;6.50;;
81229;SDS011;70701;44.452;18.652;2023-08-01T01:31:52;12.80;;;6.50;;
81229;SDS011;70701;44.452;18.652;2023-08-01T01:34:19;10.93;;;6.35;;
81229;SDS011;70701;44.452;18.652;2023-08-01T01:36:45;9.32;;;6.47;;
81229;SDS011;70701;44.452;18.652;2023-08-01T01:39:10;8.85;;;6.55;;
81229;SDS011;70701;44.452;18.652;2023-08-01T01:41:36;10.40;;;5.82;;
81229;SDS011;70701;44.452;18.652;2023-08-01T01:44:02;8.95;;;5.57;;
81229;SDS011;70701;44.452;18.652;2023-08-01T01:46:28;9.00;;;5.70;;
81229;SDS011;70701;44.452;18.652;2023-08-01T01:48:53;10.15;;;6.35;;
81229;SDS011;70701;44.452;18.652;2023-08-01T01:51:19;11.52;;;6.43;;
81229;SDS011;70701;44.452;18.652;2023-08-01T01:53:46;9.20;;;6.30;;
81229;SDS011;70701;44.452;18.652;2023-08-01T01:56:12;10.73;;;5.60;;
81229;SDS011;70701;44.452;18.652;2023-08-01T01:58:38;15.05;;;6.40;;
81229;SDS011;70701;44.452;18.652;2023-08-01T02:01:03;10.13;;;6.13;;
81229;SDS011;70701;44.452;18.652;2023-08-01T02:03:29;7.93;;;5.75;;
81229;SDS011;70701;44.452;18.652;2023-08-01T02:05:55;9.73;;;5.68;;
81229;SDS011;70701;44.452;18.652;2023-08-01T02:08:21;9.40;;;4.78;;
81229;SDS011;70701;44.452;18.652;2023-08-01T02:10:48;8.95;;;5.40;;
81229;SDS011;70701;44.452;18.652;2023-08-01T02:13:15;9.23;;;5.40;;
81229;SDS011;70701;44.452;18.652;2023-08-01T02:15:41;10.55;;;6.22;;
81229;SDS011;70701;44.452;18.652;2023-08-01T02:18:07;11.52;;;5.50;;
81229;SDS011;70701;44.452;18.652;2023-08-01T02:20:33;16.83;;;6.10;;
81229;SDS011;70701;44.452;18.652;2023-08-01T02:22:58;7.88;;;5.40;;
81229;SDS011;70701;44.452;18.652;2023-08-01T02:25:25;8.95;;;5.55;;
81229;SDS011;70701;44.452;18.652;2023-08-01T02:27:51;8.15;;;5.53;;
81229;SDS011;70701;44.452;18.652;2023-08-01T02:30:17;10.23;;;6.30;;
81229;SDS011;70701;44.452;18.652;2023-08-01T02:32:43;8.77;;;5.80;;
81229;SDS011;70701;44.452;18.652;2023-08-01T02:35:08;7.50;;;5.78;;
81229;SDS011;70701;44.452;18.652;2023-08-01T02:37:34;9.27;;;6.30;;
81229;SDS011;70701;44.452;18.652;2023-08-01T02:40:01;15.15;;;6.28;;
81229;SDS011;70701;44.452;18.652;2023-08-01T02:42:32;9.65;;;5.90;;
81229;SDS011;70701;44.452;18.652;2023-08-01T02:44:58;10.63;;;6.57;;
81229;SDS011;70701;44.452;18.652;2023-08-01T02:47:24;12.00;;;7.47;;
81229;SDS011;70701;44.452;18.652;2023-08-01T02:49:50;10.48;;;7.07;;
81229;SDS011;70701;44.452;18.652;2023-08-01T02:52:15;10.88;;;6.93;;
81229;SDS011;70701;44.452;18.652;2023-08-01T02:54:41;10.10;;;6.85;;
81229;SDS011;70701;44.452;18.652;2023-08-01T02:57:06;11.70;;;6.90;;
81229;SDS011;70701;44.452;18.652;2023-08-01T02:59:32;9.38;;;5.95;;
81229;SDS011;70701;44.452;18.652;2023-08-01T03:01:58;10.63;;;6.10;;
81229;SDS011;70701;44.452;18.652;2023-08-01T03:04:24;7.60;;;5.53;;
81229;SDS011;70701;44.452;18.652;2023-08-01T03:06:50;8.88;;;5.80;;
81229;SDS011;70701;44.452;18.652;2023-08-01T03:09:16;9.40;;;5.88;;
81229;SDS011;70701;44.452;18.652;2023-08-01T03:11:41;11.15;;;6.30;;
81229;SDS011;70701;44.452;18.652;2023-08-01T03:14:07;8.85;;;5.75;;
81229;SDS011;70701;44.452;18.652;2023-08-01T03:16:33;10.75;;;6.68;;
81229;SDS011;70701;44.452;18.652;2023-08-01T03:18:58;10.07;;;6.05;;
81229;SDS011;70701;44.452;18.652;2023-08-01T03:21:32;9.80;;;5.93;;
81229;SDS011;70701;44.452;18.652;2023-08-01T03:23:59;11.43;;;6.25;;
81229;SDS011;70701;44.452;18.652;2023-08-01T03:26:27;10.77;;;6.47;;
81229;SDS011;70701;44.452;18.652;2023-08-01T03:28:56;12.70;;;6.72;;
81229;SDS011;70701;44.452;18.652;2023-08-01T03:31:22;14.05;;;6.10;;
81229;SDS011;70701;44.452;18.652;2023-08-01T03:33:48;10.95;;;5.90;;
81229;SDS011;70701;44.452;18.652;2023-08-01T03:36:13;12.18;;;5.80;;
81229;SDS011;70701;44.452;18.652;2023-08-01T03:38:39;10.75;;;6.15;;
81229;SDS011;70701;44.452;18.652;2023-08-01T03:41:05;11.05;;;6.35;;
81229;SDS011;70701;44.452;18.652;2023-08-01T03:43:31;9.00;;;5.88;;
81229;SDS011;70701;44.452;18.652;2023-08-01T03:45:57;9.40;;;6.03;;
81229;SDS011;70701;44.452;18.652;2023-08-01T03:48:22;15.35;;;6.70;;
81229;SDS011;70701;44.452;18.652;2023-08-01T03:50:49;10.23;;;6.43;;
81229;SDS011;70701;44.452;18.652;2023-08-01T03:53:14;12.75;;;6.22;;
81229;SDS011;70701;44.452;18.652;2023-08-01T03:55:40;14.32;;;7.00;;
81229;SDS011;70701;44.452;18.652;2023-08-01T03:58:07;13.25;;;7.00;;
81229;SDS011;70701;44.452;18.652;2023-08-01T04:00:33;15.35;;;7.38;;
81229;SDS011;70701;44.452;18.652;2023-08-01T04:02:59;10.85;;;6.93;;
81229;SDS011;70701;44.452;18.652;2023-08-01T04:05:25;10.95;;;6.43;;
81229;SDS011;70701;44.452;18.652;2023-08-01T04:07:51;19.88;;;6.97;;
81229;SDS011;70701;44.452;18.652;2023-08-01T04:10:20;12.05;;;6.88;;
81229;SDS011;70701;44.452;18.652;2023-08-01T04:12:46;10.70;;;6.65;;
81229;SDS011;70701;44.452;18.652;2023-08-01T04:15:12;17.02;;;7.03;;
81229;SDS011;70701;44.452;18.652;2023-08-01T04:17:37;10.48;;;6.93;;
81229;SDS011;70701;44.452;18.652;2023-08-01T04:20:03;10.70;;;6.45;;
81229;SDS011;70701;44.452;18.652;2023-08-01T04:22:29;9.88;;;6.80;;
81229;SDS011;70701;44.452;18.652;2023-08-01T04:24:55;10.80;;;6.57;;
81229;SDS011;70701;44.452;18.652;2023-08-01T04:27:21;12.85;;;6.85;;
81229;SDS011;70701;44.452;18.652;2023-08-01T04:29:47;12.65;;;6.90;;
81229;SDS011;70701;44.452;18.652;2023-08-01T04:32:13;12.23;;;6.90;;
81229;SDS011;70701;44.452;18.652;2023-08-01T04:34:43;16.38;;;6.95;;
81229;SDS011;70701;44.452;18.652;2023-08-01T04:37:09;13.43;;;7.45;;
81229;SDS011;70701;44.452;18.652;2023-08-01T04:39:35;15.38;;;7.90;;
81229;SDS011;70701;44.452;18.652;2023-08-01T04:42:01;12.82;;;7.45;;
81229;SDS011;70701;44.452;18.652;2023-08-01T04:44:27;14.75;;;8.20;;
81229;SDS011;70701;44.452;18.652;2023-08-01T04:46:54;16.08;;;8.48;;
81229;SDS011;70701;44.452;18.652;2023-08-01T04:49:19;13.63;;;8.80;;
81229;SDS011;70701;44.452;18.652;2023-08-01T04:51:45;12.93;;;8.52;;
81229;SDS011;70701;44.452;18.652;2023-08-01T04:54:11;13.63;;;8.70;;
81229;SDS011;70701;44.452;18.652;2023-08-01T04:56:36;18.50;;;8.30;;
81229;SDS011;70701;44.452;18.652;2023-08-01T04:59:02;15.32;;;8.38;;
81229;SDS011;70701;44.452;18.652;2023-08-01T05:01:27;15.70;;;8.18;;
81229;SDS011;70701;44.452;18.652;2023-08-01T05:03:53;17.45;;;8.10;;
81229;SDS011;70701;44.452;18.652;2023-08-01T05:06:19;14.13;;;8.40;;
81229;SDS011;70701;44.452;18.652;2023-08-01T05:08:44;10.23;;;7.25;;
81229;SDS011;70701;44.452;18.652;2023-08-01T05:11:10;15.45;;;7.80;;
81229;SDS011;70701;44.452;18.652;2023-08-01T05:13:36;13.30;;;7.97;;
81229;SDS011;70701;44.452;18.652;2023-08-01T05:16:01;9.68;;;7.00;;
81229;SDS011;70701;44.452;18.652;2023-08-01T05:18:28;11.63;;;7.65;;
81229;SDS011;70701;44.452;18.652;2023-08-01T05:20:54;10.23;;;6.43;;
81229;SDS011;70701;44.452;18.652;2023-08-01T05:23:19;12.15;;;6.78;;
81229;SDS011;70701;44.452;18.652;2023-08-01T05:25:45;10.23;;;7.43;;
81229;SDS011;70701;44.452;18.652;2023-08-01T05:28:11;8.68;;;6.90;;
81229;SDS011;70701;44.452;18.652;2023-08-01T05:30:37;8.85;;;5.93;;
81229;SDS011;70701;44.452;18.652;2023-08-01T05:33:03;10.93;;;6.53;;
81229;SDS011;70701;44.452;18.652;2023-08-01T05:35:28;11.63;;;6.10;;
81229;SDS011;70701;44.452;18.652;2023-08-01T05:37:54;8.15;;;5.95;;
81229;SDS011;70701;44.452;18.652;2023-08-01T05:40:20;8.07;;;6.03;;
81229;SDS011;70701;44.452;18.652;2023-08-01T05:42:45;10.95;;;5.30;;
81229;SDS011;70701;44.452;18.652;2023-08-01T05:45:11;8.73;;;5.47;;
81229;SDS011;70701;44.452;18.652;2023-08-01T05:47:37;10.40;;;5.50;;
81229;SDS011;70701;44.452;18.652;2023-08-01T05:50:05;8.30;;;5.53;;
81229;SDS011;70701;44.452;18.652;2023-08-01T05:52:31;9.27;;;5.90;;
81229;SDS011;70701;44.452;18.652;2023-08-01T05:54:57;8.40;;;5.60;;
81229;SDS011;70701;44.452;18.652;2023-08-01T05:57:23;8.18;;;5.28;;
81229;SDS011;70701;44.452;18.652;2023-08-01T05:59:48;11.32;;;5.45;;
81229;SDS011;70701;44.452;18.652;2023-08-01T06:02:15;9.23;;;4.63;;
81229;SDS011;70701;44.452;18.652;2023-08-01T06:04:40;9.35;;;4.75;;
81229;SDS011;70701;44.452;18.652;2023-08-01T06:07:06;9.20;;;4.32;;
81229;SDS011;70701;44.452;18.652;2023-08-01T06:09:32;8.32;;;4.10;;
81229;SDS011;70701;44.452;18.652;2023-08-01T06:11:57;12.13;;;4.65;;
81229;SDS011;70701;44.452;18.652;2023-08-01T06:14:23;64.72;;;7.03;;
81229;SDS011;70701;44.452;18.652;2023-08-01T06:16:49;7.18;;;4.43;;
81229;SDS011;70701;44.452;18.652;2023-08-01T06:19:15;6.95;;;4.55;;
81229;SDS011;70701;44.452;18.652;2023-08-01T06:21:40;10.50;;;4.47;;
81229;SDS011;70701;44.452;18.652;2023-08-01T06:24:06;6.30;;;4.35;;
81229;SDS011;70701;44.452;18.652;2023-08-01T06:26:33;7.07;;;4.18;;
81229;SDS011;70701;44.452;18.652;2023-08-01T06:29:00;7.15;;;4.47;;
81229;SDS011;70701;44.452;18.652;2023-08-01T06:31:26;14.93;;;6.45;;
81229;SDS011;70701;44.452;18.652;2023-08-01T06:33:51;9.82;;;5.45;;
81229;SDS011;70701;44.452;18.652;2023-08-01T06:36:17;7.40;;;4.60;;
81229;SDS011;70701;44.452;18.652;2023-08-01T06:38:43;7.53;;;4.65;;
81229;SDS011;70701;44.452;18.652;2023-08-01T06:41:09;8.43;;;4.13;;
81229;SDS011;70701;44.452;18.652;2023-08-01T06:43:35;7.70;;;4.13;;
81229;SDS011;70701;44.452;18.652;2023-08-01T06:46:03;6.38;;;3.80;;
81229;SDS011;70701;44.452;18.652;2023-08-01T06:48:30;6.15;;;3.85;;
81229;SDS011;70701;44.452;18.652;2023-08-01T06:50:56;7.70;;;3.90;;
81229;SDS011;70701;44.452;18.652;2023-08-01T06:53:22;5.63;;;3.70;;
81229;SDS011;70701;44.452;18.652;2023-08-01T06:55:48;7.65;;;4.00;;
81229;SDS011;70701;44.452;18.652;2023-08-01T06:58:14;7.45;;;3.97;;
81229;SDS011;70701;44.452;18.652;2023-08-01T07:00:39;6.57;;;3.95;;
81229;SDS011;70701;44.452;18.652;2023-08-01T07:03:05;6.35;;;4.15;;
81229;SDS011;70701;44.452;18.652;2023-08-01T07:05:30;7.22;;;4.60;;
81229;SDS011;70701;44.452;18.652;2023-08-01T07:07:56;5.82;;;3.75;;
81229;SDS011;70701;44.452;18.652;2023-08-01T07:10:23;7.70;;;5.00;;
81229;SDS011;70701;44.452;18.652;2023-08-01T07:12:48;6.20;;;3.97;;
81229;SDS011;70701;44.452;18.652;2023-08-01T07:15:14;6.93;;;3.58;;
81229;SDS011;70701;44.452;18.652;2023-08-01T07:17:40;8.88;;;3.90;;
81229;SDS011;70701;44.452;18.652;2023-08-01T07:20:06;6.03;;;3.95;;
81229;SDS011;70701;44.452;18.652;2023-08-01T07:22:32;7.13;;;4.10;;
81229;SDS011;70701;44.452;18.652;2023-08-01T07:24:57;7.90;;;3.63;;
81229;SDS011;70701;44.452;18.652;2023-08-01T07:27:23;6.75;;;3.55;;
81229;SDS011;70701;44.452;18.652;2023-08-01T07:29:49;22.10;;;7.47;;
81229;SDS011;70701;44.452;18.652;2023-08-01T07:32:14;10.18;;;4.13;;
81229;SDS011;70701;44.452;18.652;2023-08-01T07:34:40;7.78;;;3.67;;
81229;SDS011;70701;44.452;18.652;2023-08-01T07:37:06;6.60;;;3.63;;
81229;SDS011;70701;44.452;18.652;2023-08-01T07:39:31;8.70;;;3.90;;
81229;SDS011;70701;44.452;18.652;2023-08-01T07:42:00;8.13;;;4.35;;
81229;SDS011;70701;44.452;18.652;2023-08-01T07:44:26;8.18;;;3.67;;
81229;SDS011;70701;44.452;18.652;2023-08-01T07:46:52;6.20;;;3.25;;
81229;SDS011;70701;44.452;18.652;2023-08-01T07:49:18;5.65;;;3.40;;
81229;SDS011;70701;44.452;18.652;2023-08-01T07:51:43;5.47;;;3.35;;
81229;SDS011;70701;44.452;18.652;2023-08-01T07:54:10;7.18;;;3.42;;
81229;SDS011;70701;44.452;18.652;2023-08-01T07:56:36;8.40;;;3.50;;
81229;SDS011;70701;44.452;18.652;2023-08-01T07:59:02;6.07;;;3.45;;
81229;SDS011;70701;44.452;18.652;2023-08-01T08:01:28;9.98;;;3.42;;
81229;SDS011;70701;44.452;18.652;2023-08-01T08:03:58;6.88;;;3.38;;
81229;SDS011;70701;44.452;18.652;2023-08-01T08:06:23;5.85;;;3.22;;
81229;SDS011;70701;44.452;18.652;2023-08-01T08:08:49;6.28;;;3.00;;
81229;SDS011;70701;44.452;18.652;2023-08-01T08:11:15;6.45;;;2.90;;
81229;SDS011;70701;44.452;18.652;2023-08-01T08:13:41;4.47;;;2.83;;
81229;SDS011;70701;44.452;18.652;2023-08-01T08:16:07;4.70;;;3.30;;
81229;SDS011;70701;44.452;18.652;2023-08-01T08:18:33;10.05;;;7.38;;
81229;SDS011;70701;44.452;18.652;2023-08-01T08:21:02;10.93;;;7.00;;
81229;SDS011;70701;44.452;18.652;2023-08-01T08:23:28;10.95;;;6.90;;
81229;SDS011;70701;44.452;18.652;2023-08-01T08:25:53;9.38;;;5.15;;
81229;SDS011;70701;44.452;18.652;2023-08-01T08:28:29;6.72;;;4.03;;
81229;SDS011;70701;44.452;18.652;2023-08-01T08:30:56;5.97;;;3.13;;
81229;SDS011;70701;44.452;18.652;2023-08-01T08:33:22;5.07;;;3.13;;
81229;SDS011;70701;44.452;18.652;2023-08-01T08:35:48;6.65;;;3.28;;
81229;SDS011;70701;44.452;18.652;2023-08-01T08:38:14;5.32;;;3.10;;
81229;SDS011;70701;44.452;18.652;2023-08-01T08:40:43;5.25;;;3.17;;
81229;SDS011;70701;44.452;18.652;2023-08-01T08:43:33;4.28;;;3.00;;
81229;SDS011;70701;44.452;18.652;2023-08-01T08:46:00;7.22;;;4.82;;
81229;SDS011;70701;44.452;18.652;2023-08-01T08:48:28;9.52;;;7.65;;
81229;SDS011;70701;44.452;18.652;2023-08-01T08:50:54;8.07;;;4.53;;
81229;SDS011;70701;44.452;18.652;2023-08-01T08:53:24;6.57;;;4.88;;
81229;SDS011;70701;44.452;18.652;2023-08-01T08:55:50;6.88;;;4.00;;
81229;SDS011;70701;44.452;18.652;2023-08-01T08:58:16;7.03;;;3.88;;
81229;SDS011;70701;44.452;18.652;2023-08-01T09:00:43;7.70;;;3.72;;
81229;SDS011;70701;44.452;18.652;2023-08-01T09:03:10;5.20;;;3.38;;
81229;SDS011;70701;44.452;18.652;2023-08-01T09:05:45;5.75;;;3.42;;
81229;SDS011;70701;44.452;18.652;2023-08-01T09:08:16;5.60;;;2.97;;
81229;SDS011;70701;44.452;18.652;2023-08-01T09:10:46;6.22;;;3.55;;
81229;SDS011;70701;44.452;18.652;2023-08-01T09:13:13;7.60;;;5.53;;
81229;SDS011;70701;44.452;18.652;2023-08-01T09:15:42;12.05;;;8.98;;
81229;SDS011;70701;44.452;18.652;2023-08-01T09:18:09;12.63;;;8.90;;
81229;SDS011;70701;44.452;18.652;2023-08-01T09:20:47;8.23;;;4.95;;
81229;SDS011;70701;44.452;18.652;2023-08-01T09:23:14;6.63;;;4.35;;
81229;SDS011;70701;44.452;18.652;2023-08-01T09:25:42;6.78;;;4.28;;
81229;SDS011;70701;44.452;18.652;2023-08-01T09:28:22;6.57;;;3.80;;
81229;SDS011;70701;44.452;18.652;2023-08-01T09:30:52;8.75;;;4.80;;
81229;SDS011;70701;44.452;18.652;2023-08-01T09:33:20;5.63;;;4.18;;
81229;SDS011;70701;44.452;18.652;2023-08-01T09:35:49;5.38;;;3.58;;
81229;SDS011;70701;44.452;18.652;2023-08-01T09:38:15;5.43;;;3.63;;
81229;SDS011;70701;44.452;18.652;2023-08-01T09:40:42;7.75;;;3.95;;
81229;SDS011;70701;44.452;18.652;2023-08-01T09:43:10;8.68;;;4.35;;
81229;SDS011;70701;44.452;18.652;2023-08-01T09:45:36;5.60;;;3.92;;
81229;SDS011;70701;44.452;18.652;2023-08-01T09:48:02;5.90;;;3.53;;
81229;SDS011;70701;44.452;18.652;2023-08-01T09:50:28;6.47;;;3.72;;
81229;SDS011;70701;44.452;18.652;2023-08-01T09:52:54;5.25;;;3.65;;
81229;SDS011;70701;44.452;18.652;2023-08-01T09:55:22;6.10;;;3.83;;
81229;SDS011;70701;44.452;18.652;2023-08-01T09:57:50;6.25;;;3.65;;
81229;SDS011;70701;44.452;18.652;2023-08-01T10:00:16;5.93;;;3.67;;
81229;SDS011;70701;44.452;18.652;2023-08-01T10:02:42;6.07;;;3.75;;
81229;SDS011;70701;44.452;18.652;2023-08-01T10:05:09;5.47;;;3.50;;
81229;SDS011;70701;44.452;18.652;2023-08-01T10:07:36;7.93;;;3.67;;
81229;SDS011;70701;44.452;18.652;2023-08-01T10:10:06;6.45;;;3.67;;
81229;SDS011;70701;44.452;18.652;2023-08-01T10:12:32;6.30;;;3.42;;
81229;SDS011;70701;44.452;18.652;2023-08-01T10:14:59;4.82;;;3.40;;
81229;SDS011;70701;44.452;18.652;2023-08-01T10:17:25;4.22;;;2.80;;
81229;SDS011;70701;44.452;18.652;2023-08-01T10:19:53;5.13;;;3.20;;
81229;SDS011;70701;44.452;18.652;2023-08-01T10:22:21;6.55;;;3.13;;
81229;SDS011;70701;44.452;18.652;2023-08-01T10:24:47;7.22;;;3.22;;
81229;SDS011;70701;44.452;18.652;2023-08-01T10:27:14;4.97;;;3.35;;
81229;SDS011;70701;44.452;18.652;2023-08-01T10:29:44;5.30;;;3.47;;
81229;SDS011;70701;44.452;18.652;2023-08-01T10:32:10;4.80;;;2.90;;
81229;SDS011;70701;44.452;18.652;2023-08-01T10:34:36;6.25;;;3.45;;
81229;SDS011;70701;44.452;18.652;2023-08-01T10:37:01;4.45;;;2.90;;
81229;SDS011;70701;44.452;18.652;2023-08-01T10:39:28;5.43;;;3.17;;
81229;SDS011;70701;44.452;18.652;2023-08-01T10:42:00;6.13;;;3.75;;
81229;SDS011;70701;44.452;18.652;2023-08-01T10:44:27;6.15;;;3.58;;
81229;SDS011;70701;44.452;18.652;2023-08-01T10:49:35;4.70;;;2.92;;
81229;SDS011;70701;44.452;18.652;2023-08-01T10:52:23;6.40;;;4.07;;
81229;SDS011;70701;44.452;18.652;2023-08-01T10:55:01;7.93;;;3.55;;
81229;SDS011;70701;44.452;18.652;2023-08-01T10:57:28;4.90;;;3.47;;
81229;SDS011;70701;44.452;18.652;2023-08-01T10:59:56;8.25;;;5.22;;
81229;SDS011;70701;44.452;18.652;2023-08-01T11:02:25;6.95;;;5.18;;
81229;SDS011;70701;44.452;18.652;2023-08-01T11:04:58;8.82;;;4.32;;
81229;SDS011;70701;44.452;18.652;2023-08-01T11:10:10;4.97;;;2.67;;
81229;SDS011;70701;44.452;18.652;2023-08-01T11:12:39;6.32;;;3.85;;
81229;SDS011;70701;44.452;18.652;2023-08-01T11:15:07;6.68;;;4.38;;
81229;SDS011;70701;44.452;18.652;2023-08-01T11:17:40;6.40;;;3.97;;
81229;SDS011;70701;44.452;18.652;2023-08-01T11:20:08;7.43;;;3.83;;
81229;SDS011;70701;44.452;18.652;2023-08-01T11:22:36;5.13;;;3.25;;
81229;SDS011;70701;44.452;18.652;2023-08-01T11:25:02;5.22;;;3.22;;
81229;SDS011;70701;44.452;18.652;2023-08-01T11:27:28;8.25;;;3.90;;
81229;SDS011;70701;44.452;18.652;2023-08-01T11:29:55;6.22;;;3.38;;
81229;SDS011;70701;44.452;18.652;2023-08-01T11:32:21;5.75;;;3.28;;
81229;SDS011;70701;44.452;18.652;2023-08-01T11:34:58;5.72;;;3.05;;
81229;SDS011;70701;44.452;18.652;2023-08-01T11:37:25;4.80;;;3.10;;
81229;SDS011;70701;44.452;18.652;2023-08-01T11:39:51;5.20;;;3.25;;
81229;SDS011;70701;44.452;18.652;2023-08-01T11:42:17;3.58;;;2.42;;
81229;SDS011;70701;44.452;18.652;2023-08-01T11:44:44;5.32;;;3.67;;
81229;SDS011;70701;44.452;18.652;2023-08-01T11:47:14;6.78;;;4.10;;
81229;SDS011;70701;44.452;18.652;2023-08-01T11:49:47;11.02;;;6.40;;
81229;SDS011;70701;44.452;18.652;2023-08-01T11:52:24;9.50;;;5.05;;
81229;SDS011;70701;44.452;18.652;2023-08-01T11:54:51;6.90;;;4.30;;
81229;SDS011;70701;44.452;18.652;2023-08-01T11:57:17;7.28;;;4.05;;
81229;SDS011;70701;44.452;18.652;2023-08-01T11:59:49;10.32;;;5.35;;
81229;SDS011;70701;44.452;18.652;2023-08-01T12:02:20;7.10;;;4.75;;
81229;SDS011;70701;44.452;18.652;2023-08-01T12:04:49;9.02;;;6.18;;
81229;SDS011;70701;44.452;18.652;2023-08-01T12:07:16;9.32;;;5.47;;
81229;SDS011;70701;44.452;18.652;2023-08-01T12:09:42;8.52;;;6.97;;
81229;SDS011;70701;44.452;18.652;2023-08-01T12:12:08;11.73;;;7.22;;
81229;SDS011;70701;44.452;18.652;2023-08-01T12:14:40;7.97;;;5.28;;
81229;SDS011;70701;44.452;18.652;2023-08-01T12:17:06;8.02;;;5.97;;
81229;SDS011;70701;44.452;18.652;2023-08-01T12:19:32;25.40;;;19.02;;
81229;SDS011;70701;44.452;18.652;2023-08-01T12:22:00;29.38;;;25.08;;
81229;SDS011;70701;44.452;18.652;2023-08-01T12:24:25;26.00;;;22.25;;
81229;SDS011;70701;44.452;18.652;2023-08-01T12:26:51;18.08;;;13.88;;
81229;SDS011;70701;44.452;18.652;2023-08-01T12:29:17;11.95;;;9.52;;
81229;SDS011;70701;44.452;18.652;2023-08-01T12:31:42;9.38;;;6.88;;
81229;SDS011;70701;44.452;18.652;2023-08-01T12:34:09;17.58;;;14.75;;
81229;SDS011;70701;44.452;18.652;2023-08-01T12:36:34;19.67;;;15.95;;
81229;SDS011;70701;44.452;18.652;2023-08-01T12:39:00;16.92;;;13.30;;
81229;SDS011;70701;44.452;18.652;2023-08-01T12:41:26;16.60;;;12.90;;
81229;SDS011;70701;44.452;18.652;2023-08-01T12:43:51;12.02;;;9.15;;
81229;SDS011;70701;44.452;18.652;2023-08-01T12:46:17;20.35;;;17.98;;
81229;SDS011;70701;44.452;18.652;2023-08-01T12:48:46;14.38;;;11.32;;
81229;SDS011;70701;44.452;18.652;2023-08-01T12:51:12;9.18;;;7.03;;
81229;SDS011;70701;44.452;18.652;2023-08-01T12:53:42;14.20;;;12.05;;
81229;SDS011;70701;44.452;18.652;2023-08-01T12:56:14;10.95;;;8.70;;
81229;SDS011;70701;44.452;18.652;2023-08-01T12:58:39;11.02;;;6.85;;
81229;SDS011;70701;44.452;18.652;2023-08-01T13:01:05;13.65;;;10.73;;
81229;SDS011;70701;44.452;18.652;2023-08-01T13:03:34;10.82;;;7.22;;
81229;SDS011;70701;44.452;18.652;2023-08-01T13:06:04;11.77;;;9.52;;
81229;SDS011;70701;44.452;18.652;2023-08-01T13:08:30;27.88;;;22.13;;
81229;SDS011;70701;44.452;18.652;2023-08-01T13:10:56;13.10;;;9.60;;
81229;SDS011;70701;44.452;18.652;2023-08-01T13:13:25;10.05;;;7.20;;
81229;SDS011;70701;44.452;18.652;2023-08-01T13:15:50;9.95;;;7.55;;
81229;SDS011;70701;44.452;18.652;2023-08-01T13:18:16;18.25;;;14.65;;
81229;SDS011;70701;44.452;18.652;2023-08-01T13:20:43;19.73;;;16.83;;
81229;SDS011;70701;44.452;18.652;2023-08-01T13:23:09;24.65;;;19.25;;
81229;SDS011;70701;44.452;18.652;2023-08-01T13:25:35;12.52;;;7.90;;
81229;SDS011;70701;44.452;18.652;2023-08-01T13:28:01;11.95;;;8.45;;
81229;SDS011;70701;44.452;18.652;2023-08-01T13:30:26;17.45;;;9.77;;
81229;SDS011;70701;44.452;18.652;2023-08-01T13:32:52;14.07;;;8.80;;
81229;SDS011;70701;44.452;18.652;2023-08-01T13:35:18;9.68;;;7.07;;
81229;SDS011;70701;44.452;18.652;2023-08-01T13:37:44;9.00;;;6.43;;
81229;SDS011;70701;44.452;18.652;2023-08-01T13:40:10;10.27;;;8.40;;
81229;SDS011;70701;44.452;18.652;2023-08-01T13:42:40;25.42;;;19.83;;
81229;SDS011;70701;44.452;18.652;2023-08-01T13:45:15;14.18;;;7.60;;
81229;SDS011;70701;44.452;18.652;2023-08-01T13:47:41;22.85;;;15.68;;
81229;SDS011;70701;44.452;18.652;2023-08-01T13:50:09;12.23;;;8.23;;
81229;SDS011;70701;44.452;18.652;2023-08-01T13:52:38;12.70;;;5.57;;
81229;SDS011;70701;44.452;18.652;2023-08-01T13:55:04;8.02;;;4.70;;
81229;SDS011;70701;44.452;18.652;2023-08-01T13:57:31;18.55;;;11.77;;
81229;SDS011;70701;44.452;18.652;2023-08-01T13:59:57;19.40;;;16.33;;
81229;SDS011;70701;44.452;18.652;2023-08-01T14:02:23;12.98;;;8.95;;
81229;SDS011;70701;44.452;18.652;2023-08-01T14:04:55;11.88;;;6.85;;
81229;SDS011;70701;44.452;18.652;2023-08-01T14:07:20;9.02;;;7.20;;
81229;SDS011;70701;44.452;18.652;2023-08-01T14:09:46;8.63;;;6.25;;
81229;SDS011;70701;44.452;18.652;2023-08-01T14:12:12;10.10;;;4.93;;
81229;SDS011;70701;44.452;18.652;2023-08-01T14:14:37;9.75;;;7.10;;
81229;SDS011;70701;44.452;18.652;2023-08-01T14:17:03;9.02;;;7.32;;
81229;SDS011;70701;44.452;18.652;2023-08-01T14:19:29;7.78;;;4.10;;
81229;SDS011;70701;44.452;18.652;2023-08-01T14:21:55;7.72;;;6.35;;
81229;SDS011;70701;44.452;18.652;2023-08-01T14:24:22;7.28;;;4.28;;
81229;SDS011;70701;44.452;18.652;2023-08-01T14:26:48;5.95;;;4.28;;
81229;SDS011;70701;44.452;18.652;2023-08-01T14:29:16;7.60;;;4.60;;
81229;SDS011;70701;44.452;18.652;2023-08-01T14:31:46;7.03;;;3.45;;